sensor_id;sensor_type;location;lat;lon;timestamp;temperature;humidity
30097;DHT22;16915;51.466;3.610;2022-07-29T00:01:47;17.70;99.90
30097;DHT22;16915;51.466;3.610;2022-07-29T00:04:13;17.70;99.90
30097;DHT22;16915;51.466;3.610;2022-07-29T00:06:39;17.60;99.90
30097;DHT22;16915;51.466;3.610;2022-07-29T00:09:05;17.70;99.90
30097;DHT22;16915;51.466;3.610;2022-07-29T00:11:31;17.60;99.90
30097;DHT22;16915;51.466;3.610;2022-07-29T00:13:58;17.60;99.90
30097;DHT22;16915;51.466;3.610;2022-07-29T00:16:23;17.60;99.90
30097;DHT22;16915;51.466;3.610;2022-07-29T00:18:49;17.50;99.90
30097;DHT22;16915;51.466;3.610;2022-07-29T00:21:16;17.50;99.90
30097;DHT22;16915;51.466;3.610;2022-07-29T00:23:41;17.50;99.90
30097;DHT22;16915;51.466;3.610;2022-07-29T00:26:07;17.60;99.90
30097;DHT22;16915;51.466;3.610;2022-07-29T00:28:33;17.60;99.90
30097;DHT22;16915;51.466;3.610;2022-07-29T00:30:59;17.60;99.90
30097;DHT22;16915;51.466;3.610;2022-07-29T00:33:24;17.60;99.90
30097;DHT22;16915;51.466;3.610;2022-07-29T00:35:51;17.60;99.90
30097;DHT22;16915;51.466;3.610;2022-07-29T00:38:18;17.70;99.90
30097;DHT22;16915;51.466;3.610;2022-07-29T00:40:45;17.70;99.90
30097;DHT22;16915;51.466;3.610;2022-07-29T00:43:12;17.70;99.90
30097;DHT22;16915;51.466;3.610;2022-07-29T00:45:39;17.70;99.90
30097;DHT22;16915;51.466;3.610;2022-07-29T00:48:05;17.60;99.90
30097;DHT22;16915;51.466;3.610;2022-07-29T00:50:32;17.70;99.90
30097;DHT22;16915;51.466;3.610;2022-07-29T00:52:58;17.60;99.90
30097;DHT22;16915;51.466;3.610;2022-07-29T00:55:24;17.60;99.90
30097;DHT22;16915;51.466;3.610;2022-07-29T00:57:50;17.60;99.90
30097;DHT22;16915;51.466;3.610;2022-07-29T01:00:20;17.60;99.90
30097;DHT22;16915;51.466;3.610;2022-07-29T01:02:46;17.60;99.90
30097;DHT22;16915;51.466;3.610;2022-07-29T01:05:18;17.50;99.90
30097;DHT22;16915;51.466;3.610;2022-07-29T01:07:45;17.50;99.90
30097;DHT22;16915;51.466;3.610;2022-07-29T01:10:13;17.50;99.90
30097;DHT22;16915;51.466;3.610;2022-07-29T01:12:39;17.40;99.90
30097;DHT22;16915;51.466;3.610;2022-07-29T01:15:08;17.40;99.90
30097;DHT22;16915;51.466;3.610;2022-07-29T01:18:16;17.30;99.90
30097;DHT22;16915;51.466;3.610;2022-07-29T01:27:18;17.10;99.90
30097;DHT22;16915;51.466;3.610;2022-07-29T01:29:57;17.10;99.90
30097;DHT22;16915;51.466;3.610;2022-07-29T01:32:27;17.00;99.90
30097;DHT22;16915;51.466;3.610;2022-07-29T01:35:26;16.90;99.90
30097;DHT22;16915;51.466;3.610;2022-07-29T01:38:22;16.80;99.90
30097;DHT22;16915;51.466;3.610;2022-07-29T01:40:58;16.80;99.90
30097;DHT22;16915;51.466;3.610;2022-07-29T01:43:27;16.70;99.90
30097;DHT22;16915;51.466;3.610;2022-07-29T01:46:00;16.70;99.90
30097;DHT22;16915;51.466;3.610;2022-07-29T01:52:11;16.60;99.90
30097;DHT22;16915;51.466;3.610;2022-07-29T01:55:13;16.60;99.90
30097;DHT22;16915;51.466;3.610;2022-07-29T01:57:57;16.50;99.90
30097;DHT22;16915;51.466;3.610;2022-07-29T02:00:43;16.40;99.90
30097;DHT22;16915;51.466;3.610;2022-07-29T02:03:11;16.40;99.90
30097;DHT22;16915;51.466;3.610;2022-07-29T02:05:45;16.30;99.90
30097;DHT22;16915;51.466;3.610;2022-07-29T02:08:32;16.30;99.90
30097;DHT22;16915;51.466;3.610;2022-07-29T02:11:00;16.20;99.90
30097;DHT22;16915;51.466;3.610;2022-07-29T02:13:31;16.20;99.90
30097;DHT22;16915;51.466;3.610;2022-07-29T02:16:06;16.20;99.90
30097;DHT22;16915;51.466;3.610;2022-07-29T02:30:11;16.10;99.90
30097;DHT22;16915;51.466;3.610;2022-07-29T02:33:01;16.00;99.90
30097;DHT22;16915;51.466;3.610;2022-07-29T02:36:12;15.90;99.90
30097;DHT22;16915;51.466;3.610;2022-07-29T02:39:12;15.90;99.90
30097;DHT22;16915;51.466;3.610;2022-07-29T02:42:16;15.80;99.90
30097;DHT22;16915;51.466;3.610;2022-07-29T02:44:53;15.80;99.90
30097;DHT22;16915;51.466;3.610;2022-07-29T02:51:25;15.60;99.90
30097;DHT22;16915;51.466;3.610;2022-07-29T02:54:58;15.60;99.90
30097;DHT22;16915;51.466;3.610;2022-07-29T02:58:30;15.60;99.90
30097;DHT22;16915;51.466;3.610;2022-07-29T03:05:20;15.40;99.90
30097;DHT22;16915;51.466;3.610;2022-07-29T03:08:26;15.30;99.90
30097;DHT22;16915;51.466;3.610;2022-07-29T03:11:39;15.30;99.90
30097;DHT22;16915;51.466;3.610;2022-07-29T03:14:52;15.30;99.90
30097;DHT22;16915;51.466;3.610;2022-07-29T03:17:29;15.30;99.90
30097;DHT22;16915;51.466;3.610;2022-07-29T03:20:29;15.30;99.90
30097;DHT22;16915;51.466;3.610;2022-07-29T03:23:28;15.20;99.90
30097;DHT22;16915;51.466;3.610;2022-07-29T03:26:44;15.20;99.90
30097;DHT22;16915;51.466;3.610;2022-07-29T03:29:52;15.10;99.90
30097;DHT22;16915;51.466;3.610;2022-07-29T03:32:26;15.10;99.90
30097;DHT22;16915;51.466;3.610;2022-07-29T03:35:34;15.10;99.90
30097;DHT22;16915;51.466;3.610;2022-07-29T03:38:11;15.10;99.90
30097;DHT22;16915;51.466;3.610;2022-07-29T03:41:07;15.10;99.90
30097;DHT22;16915;51.466;3.610;2022-07-29T03:44:02;15.00;99.90
30097;DHT22;16915;51.466;3.610;2022-07-29T03:46:53;15.00;99.90
30097;DHT22;16915;51.466;3.610;2022-07-29T03:50:23;15.00;99.90
30097;DHT22;16915;51.466;3.610;2022-07-29T03:53:16;14.90;99.90
30097;DHT22;16915;51.466;3.610;2022-07-29T03:56:09;14.90;99.90
30097;DHT22;16915;51.466;3.610;2022-07-29T03:58:44;14.90;99.90
30097;DHT22;16915;51.466;3.610;2022-07-29T04:01:35;14.80;99.90
30097;DHT22;16915;51.466;3.610;2022-07-29T04:05:16;14.80;99.90
30097;DHT22;16915;51.466;3.610;2022-07-29T04:08:11;14.90;99.90
30097;DHT22;16915;51.466;3.610;2022-07-29T04:11:41;14.80;99.90
30097;DHT22;16915;51.466;3.610;2022-07-29T04:14:33;14.80;99.90
30097;DHT22;16915;51.466;3.610;2022-07-29T04:17:01;14.80;99.90
30097;DHT22;16915;51.466;3.610;2022-07-29T04:19:43;14.80;99.90
30097;DHT22;16915;51.466;3.610;2022-07-29T04:22:15;14.80;99.90
30097;DHT22;16915;51.466;3.610;2022-07-29T04:24:45;14.80;99.90
30097;DHT22;16915;51.466;3.610;2022-07-29T04:27:31;14.70;99.90
30097;DHT22;16915;51.466;3.610;2022-07-29T04:30:52;14.80;99.90
30097;DHT22;16915;51.466;3.610;2022-07-29T04:34:06;14.80;99.90
30097;DHT22;16915;51.466;3.610;2022-07-29T04:37:36;14.80;99.90
30097;DHT22;16915;51.466;3.610;2022-07-29T04:40:56;14.80;99.90
30097;DHT22;16915;51.466;3.610;2022-07-29T04:47:41;14.80;99.90
30097;DHT22;16915;51.466;3.610;2022-07-29T04:51:14;14.90;99.90
30097;DHT22;16915;51.466;3.610;2022-07-29T04:54:19;15.00;99.90
30097;DHT22;16915;51.466;3.610;2022-07-29T04:56:58;15.20;99.90
30097;DHT22;16915;51.466;3.610;2022-07-29T05:00:21;15.20;99.90
30097;DHT22;16915;51.466;3.610;2022-07-29T05:03:35;15.30;99.90
30097;DHT22;16915;51.466;3.610;2022-07-29T05:06:19;15.20;99.90
30097;DHT22;16915;51.466;3.610;2022-07-29T05:08:46;15.30;99.90
30097;DHT22;16915;51.466;3.610;2022-07-29T05:11:11;15.40;99.90
30097;DHT22;16915;51.466;3.610;2022-07-29T05:13:45;15.50;99.90
30097;DHT22;16915;51.466;3.610;2022-07-29T05:16:31;15.70;99.90
30097;DHT22;16915;51.466;3.610;2022-07-29T05:19:08;15.80;99.90
30097;DHT22;16915;51.466;3.610;2022-07-29T05:21:39;16.00;99.90
30097;DHT22;16915;51.466;3.610;2022-07-29T05:24:05;16.20;99.90
30097;DHT22;16915;51.466;3.610;2022-07-29T05:26:31;16.30;99.90
30097;DHT22;16915;51.466;3.610;2022-07-29T05:29:00;16.50;99.90
30097;DHT22;16915;51.466;3.610;2022-07-29T05:31:26;16.60;99.90
30097;DHT22;16915;51.466;3.610;2022-07-29T05:33:53;16.70;99.90
30097;DHT22;16915;51.466;3.610;2022-07-29T05:36:19;16.70;99.90
30097;DHT22;16915;51.466;3.610;2022-07-29T05:38:45;16.80;99.90
30097;DHT22;16915;51.466;3.610;2022-07-29T05:41:12;16.90;99.90
30097;DHT22;16915;51.466;3.610;2022-07-29T05:43:38;16.80;99.90
30097;DHT22;16915;51.466;3.610;2022-07-29T05:46:04;16.70;99.90
30097;DHT22;16915;51.466;3.610;2022-07-29T05:48:30;16.60;99.90
30097;DHT22;16915;51.466;3.610;2022-07-29T05:51:05;16.60;99.90
30097;DHT22;16915;51.466;3.610;2022-07-29T05:53:34;16.70;99.90
30097;DHT22;16915;51.466;3.610;2022-07-29T05:56:05;17.00;99.90
30097;DHT22;16915;51.466;3.610;2022-07-29T05:58:32;17.40;99.90
30097;DHT22;16915;51.466;3.610;2022-07-29T06:04:25;18.20;99.90
30097;DHT22;16915;51.466;3.610;2022-07-29T06:07:41;18.60;99.90
30097;DHT22;16915;51.466;3.610;2022-07-29T06:10:09;19.00;99.90
30097;DHT22;16915;51.466;3.610;2022-07-29T06:12:35;19.30;99.90
30097;DHT22;16915;51.466;3.610;2022-07-29T06:15:01;19.30;99.90
30097;DHT22;16915;51.466;3.610;2022-07-29T06:17:27;19.30;99.90
30097;DHT22;16915;51.466;3.610;2022-07-29T06:19:53;19.30;99.90
30097;DHT22;16915;51.466;3.610;2022-07-29T06:22:21;19.30;99.90
30097;DHT22;16915;51.466;3.610;2022-07-29T06:24:47;19.30;99.90
30097;DHT22;16915;51.466;3.610;2022-07-29T06:27:15;19.20;99.90
30097;DHT22;16915;51.466;3.610;2022-07-29T06:29:41;19.30;99.90
30097;DHT22;16915;51.466;3.610;2022-07-29T06:32:07;19.30;99.90
30097;DHT22;16915;51.466;3.610;2022-07-29T06:34:52;19.30;99.90
30097;DHT22;16915;51.466;3.610;2022-07-29T06:37:23;19.40;99.90
30097;DHT22;16915;51.466;3.610;2022-07-29T06:40:08;19.40;99.90
30097;DHT22;16915;51.466;3.610;2022-07-29T06:42:58;19.50;99.90
30097;DHT22;16915;51.466;3.610;2022-07-29T06:45:25;19.50;99.90
30097;DHT22;16915;51.466;3.610;2022-07-29T06:47:55;19.60;99.90
30097;DHT22;16915;51.466;3.610;2022-07-29T06:51:00;19.80;99.90
30097;DHT22;16915;51.466;3.610;2022-07-29T06:53:32;19.70;99.90
30097;DHT22;16915;51.466;3.610;2022-07-29T06:56:01;19.80;99.90
30097;DHT22;16915;51.466;3.610;2022-07-29T06:58:43;19.80;99.90
30097;DHT22;16915;51.466;3.610;2022-07-29T07:01:56;19.80;99.90
30097;DHT22;16915;51.466;3.610;2022-07-29T07:04:42;20.10;99.90
30097;DHT22;16915;51.466;3.610;2022-07-29T07:07:08;20.10;99.90
30097;DHT22;16915;51.466;3.610;2022-07-29T07:09:49;20.20;99.90
30097;DHT22;16915;51.466;3.610;2022-07-29T07:12:21;20.10;99.90
30097;DHT22;16915;51.466;3.610;2022-07-29T07:14:46;20.30;99.90
30097;DHT22;16915;51.466;3.610;2022-07-29T07:17:13;20.40;99.90
30097;DHT22;16915;51.466;3.610;2022-07-29T07:19:41;20.50;99.90
30097;DHT22;16915;51.466;3.610;2022-07-29T07:22:07;20.60;99.90
30097;DHT22;16915;51.466;3.610;2022-07-29T07:24:34;20.70;99.90
30097;DHT22;16915;51.466;3.610;2022-07-29T07:26:59;20.80;99.90
30097;DHT22;16915;51.466;3.610;2022-07-29T07:29:28;20.90;99.90
30097;DHT22;16915;51.466;3.610;2022-07-29T07:31:57;21.00;99.90
30097;DHT22;16915;51.466;3.610;2022-07-29T07:34:33;21.10;99.90
30097;DHT22;16915;51.466;3.610;2022-07-29T07:37:07;21.20;99.90
30097;DHT22;16915;51.466;3.610;2022-07-29T07:40:22;21.30;99.90
30097;DHT22;16915;51.466;3.610;2022-07-29T07:42:53;21.30;99.90
30097;DHT22;16915;51.466;3.610;2022-07-29T07:48:56;21.40;99.90
30097;DHT22;16915;51.466;3.610;2022-07-29T07:51:34;21.70;99.90
30097;DHT22;16915;51.466;3.610;2022-07-29T07:54:00;21.80;99.90
30097;DHT22;16915;51.466;3.610;2022-07-29T07:56:26;21.80;99.90
30097;DHT22;16915;51.466;3.610;2022-07-29T07:59:06;21.80;99.90
30097;DHT22;16915;51.466;3.610;2022-07-29T08:01:34;22.00;99.90
30097;DHT22;16915;51.466;3.610;2022-07-29T08:04:05;22.00;99.90
30097;DHT22;16915;51.466;3.610;2022-07-29T08:06:33;22.10;99.90
30097;DHT22;16915;51.466;3.610;2022-07-29T08:09:06;22.20;99.90
30097;DHT22;16915;51.466;3.610;2022-07-29T08:11:34;22.20;99.90
30097;DHT22;16915;51.466;3.610;2022-07-29T08:14:00;22.30;99.90
30097;DHT22;16915;51.466;3.610;2022-07-29T08:16:28;22.40;99.90
30097;DHT22;16915;51.466;3.610;2022-07-29T08:18:54;22.50;99.90
30097;DHT22;16915;51.466;3.610;2022-07-29T08:21:22;22.60;99.90
30097;DHT22;16915;51.466;3.610;2022-07-29T08:23:48;22.60;99.90
30097;DHT22;16915;51.466;3.610;2022-07-29T08:26:16;22.60;99.90
30097;DHT22;16915;51.466;3.610;2022-07-29T08:28:57;22.60;99.90
30097;DHT22;16915;51.466;3.610;2022-07-29T08:31:25;22.70;99.90
30097;DHT22;16915;51.466;3.610;2022-07-29T08:33:51;22.80;99.90
30097;DHT22;16915;51.466;3.610;2022-07-29T08:36:16;23.00;99.90
30097;DHT22;16915;51.466;3.610;2022-07-29T08:38:43;23.10;99.90
30097;DHT22;16915;51.466;3.610;2022-07-29T08:41:35;23.10;99.90
30097;DHT22;16915;51.466;3.610;2022-07-29T08:44:24;23.20;99.90
30097;DHT22;16915;51.466;3.610;2022-07-29T08:46:57;23.40;99.90
30097;DHT22;16915;51.466;3.610;2022-07-29T08:49:46;23.50;99.90
30097;DHT22;16915;51.466;3.610;2022-07-29T08:52:16;23.70;99.90
30097;DHT22;16915;51.466;3.610;2022-07-29T08:54:44;23.60;99.90
30097;DHT22;16915;51.466;3.610;2022-07-29T08:57:13;23.50;99.90
30097;DHT22;16915;51.466;3.610;2022-07-29T08:59:50;23.50;99.90
30097;DHT22;16915;51.466;3.610;2022-07-29T09:08:34;23.90;99.70
30097;DHT22;16915;51.466;3.610;2022-07-29T09:11:05;24.00;99.00
30097;DHT22;16915;51.466;3.610;2022-07-29T09:13:59;24.00;99.40
30097;DHT22;16915;51.466;3.610;2022-07-29T09:16:49;24.10;99.30
30097;DHT22;16915;51.466;3.610;2022-07-29T09:19:28;24.20;99.10
30097;DHT22;16915;51.466;3.610;2022-07-29T09:21:57;24.30;98.40
30097;DHT22;16915;51.466;3.610;2022-07-29T09:27:50;24.40;97.00
30097;DHT22;16915;51.466;3.610;2022-07-29T09:33:38;24.60;97.70
30097;DHT22;16915;51.466;3.610;2022-07-29T09:36:27;24.80;97.10
30097;DHT22;16915;51.466;3.610;2022-07-29T09:39:08;24.80;96.60
30097;DHT22;16915;51.466;3.610;2022-07-29T09:48:21;25.10;96.20
30097;DHT22;16915;51.466;3.610;2022-07-29T09:50:51;24.90;95.80
30097;DHT22;16915;51.466;3.610;2022-07-29T09:53:37;24.90;96.20
30097;DHT22;16915;51.466;3.610;2022-07-29T09:59:09;25.00;95.40
30097;DHT22;16915;51.466;3.610;2022-07-29T10:01:39;25.20;94.30
30097;DHT22;16915;51.466;3.610;2022-07-29T10:04:08;25.20;93.90
30097;DHT22;16915;51.466;3.610;2022-07-29T10:06:58;25.20;94.10
30097;DHT22;16915;51.466;3.610;2022-07-29T10:13:03;25.60;94.40
30097;DHT22;16915;51.466;3.610;2022-07-29T10:15:31;25.90;94.10
30097;DHT22;16915;51.466;3.610;2022-07-29T10:18:30;26.00;93.80
30097;DHT22;16915;51.466;3.610;2022-07-29T10:21:38;26.40;94.40
30097;DHT22;16915;51.466;3.610;2022-07-29T10:27:26;27.20;93.20
30097;DHT22;16915;51.466;3.610;2022-07-29T10:30:14;27.30;92.90
30097;DHT22;16915;51.466;3.610;2022-07-29T10:42:17;27.90;92.30
30097;DHT22;16915;51.466;3.610;2022-07-29T10:44:49;28.30;92.40
30097;DHT22;16915;51.466;3.610;2022-07-29T10:47:23;28.80;91.20
30097;DHT22;16915;51.466;3.610;2022-07-29T10:50:04;29.20;90.30
30097;DHT22;16915;51.466;3.610;2022-07-29T10:55:57;29.80;90.20
30097;DHT22;16915;51.466;3.610;2022-07-29T11:05:53;30.60;85.70
30097;DHT22;16915;51.466;3.610;2022-07-29T11:12:50;31.30;85.80
30097;DHT22;16915;51.466;3.610;2022-07-29T11:19:32;31.80;83.80
30097;DHT22;16915;51.466;3.610;2022-07-29T11:33:39;32.00;82.20
30097;DHT22;16915;51.466;3.610;2022-07-29T11:45:24;33.40;78.00
30097;DHT22;16915;51.466;3.610;2022-07-29T11:52:48;33.50;78.90
30097;DHT22;16915;51.466;3.610;2022-07-29T12:17:56;36.20;71.90
30097;DHT22;16915;51.466;3.610;2022-07-29T12:20:56;36.60;71.20
30097;DHT22;16915;51.466;3.610;2022-07-29T12:34:12;36.80;67.70
30097;DHT22;16915;51.466;3.610;2022-07-29T12:44:10;36.30;67.00
30097;DHT22;16915;51.466;3.610;2022-07-29T12:56:59;37.30;64.60
30097;DHT22;16915;51.466;3.610;2022-07-29T12:59:35;37.30;65.20
30097;DHT22;16915;51.466;3.610;2022-07-29T13:02:01;37.40;63.80
30097;DHT22;16915;51.466;3.610;2022-07-29T13:04:31;37.60;64.90
30097;DHT22;16915;51.466;3.610;2022-07-29T13:07:07;37.70;65.40
30097;DHT22;16915;51.466;3.610;2022-07-29T13:10:17;37.50;64.80
30097;DHT22;16915;51.466;3.610;2022-07-29T13:13:01;37.40;63.20
30097;DHT22;16915;51.466;3.610;2022-07-29T13:15:43;37.90;64.30
30097;DHT22;16915;51.466;3.610;2022-07-29T13:18:31;37.80;63.00
30097;DHT22;16915;51.466;3.610;2022-07-29T13:21:16;37.70;64.50
30097;DHT22;16915;51.466;3.610;2022-07-29T13:23:53;37.60;63.00
30097;DHT22;16915;51.466;3.610;2022-07-29T13:26:36;37.30;62.80
30097;DHT22;16915;51.466;3.610;2022-07-29T13:29:09;37.40;64.10
30097;DHT22;16915;51.466;3.610;2022-07-29T13:31:40;37.90;64.80
30097;DHT22;16915;51.466;3.610;2022-07-29T13:34:07;38.40;63.40
30097;DHT22;16915;51.466;3.610;2022-07-29T13:36:33;38.50;62.90
30097;DHT22;16915;51.466;3.610;2022-07-29T13:38:59;38.80;63.20
30097;DHT22;16915;51.466;3.610;2022-07-29T13:41:29;39.10;61.30
30097;DHT22;16915;51.466;3.610;2022-07-29T13:44:05;39.10;61.80
30097;DHT22;16915;51.466;3.610;2022-07-29T13:46:43;39.00;61.30
30097;DHT22;16915;51.466;3.610;2022-07-29T13:49:19;38.60;62.10
30097;DHT22;16915;51.466;3.610;2022-07-29T13:51:56;38.00;62.20
30097;DHT22;16915;51.466;3.610;2022-07-29T13:54:39;37.90;61.40
30097;DHT22;16915;51.466;3.610;2022-07-29T13:57:11;37.90;61.60
30097;DHT22;16915;51.466;3.610;2022-07-29T13:59:41;37.80;61.70
30097;DHT22;16915;51.466;3.610;2022-07-29T14:02:31;38.00;61.00
30097;DHT22;16915;51.466;3.610;2022-07-29T14:04:59;37.90;61.20
30097;DHT22;16915;51.466;3.610;2022-07-29T14:10:42;37.90;62.20
30097;DHT22;16915;51.466;3.610;2022-07-29T14:13:08;38.00;61.80
30097;DHT22;16915;51.466;3.610;2022-07-29T14:15:38;38.20;63.10
30097;DHT22;16915;51.466;3.610;2022-07-29T14:18:15;38.40;62.60
30097;DHT22;16915;51.466;3.610;2022-07-29T14:20:46;38.60;61.40
30097;DHT22;16915;51.466;3.610;2022-07-29T14:23:18;38.80;62.30
30097;DHT22;16915;51.466;3.610;2022-07-29T14:26:26;38.90;61.60
30097;DHT22;16915;51.466;3.610;2022-07-29T14:32:43;38.80;61.50
30097;DHT22;16915;51.466;3.610;2022-07-29T14:42:37;39.30;61.20
30097;DHT22;16915;51.466;3.610;2022-07-29T14:45:29;39.10;60.90
30097;DHT22;16915;51.466;3.610;2022-07-29T14:47:57;39.00;60.30
30097;DHT22;16915;51.466;3.610;2022-07-29T14:50:24;38.70;60.30
30097;DHT22;16915;51.466;3.610;2022-07-29T14:52:52;38.50;60.80
30097;DHT22;16915;51.466;3.610;2022-07-29T14:55:18;38.30;59.80
30097;DHT22;16915;51.466;3.610;2022-07-29T14:57:45;38.40;61.20
30097;DHT22;16915;51.466;3.610;2022-07-29T15:00:19;38.60;59.90
30097;DHT22;16915;51.466;3.610;2022-07-29T15:02:46;38.90;60.10
30097;DHT22;16915;51.466;3.610;2022-07-29T15:05:15;39.40;59.70
30097;DHT22;16915;51.466;3.610;2022-07-29T15:25:07;39.10;58.30
30097;DHT22;16915;51.466;3.610;2022-07-29T15:34:44;38.80;58.80
30097;DHT22;16915;51.466;3.610;2022-07-29T15:37:11;39.10;58.90
30097;DHT22;16915;51.466;3.610;2022-07-29T15:43:23;39.00;57.20
30097;DHT22;16915;51.466;3.610;2022-07-29T15:46:28;38.70;57.70
30097;DHT22;16915;51.466;3.610;2022-07-29T15:49:12;38.70;58.10
30097;DHT22;16915;51.466;3.610;2022-07-29T15:51:40;38.90;57.10
30097;DHT22;16915;51.466;3.610;2022-07-29T15:54:08;39.10;57.40
30097;DHT22;16915;51.466;3.610;2022-07-29T15:56:33;39.00;57.30
30097;DHT22;16915;51.466;3.610;2022-07-29T15:59:01;39.20;57.60
30097;DHT22;16915;51.466;3.610;2022-07-29T16:01:29;39.00;57.10
30097;DHT22;16915;51.466;3.610;2022-07-29T16:03:58;38.80;57.40
30097;DHT22;16915;51.466;3.610;2022-07-29T16:06:28;38.60;57.50
30097;DHT22;16915;51.466;3.610;2022-07-29T16:08:57;38.50;57.70
30097;DHT22;16915;51.466;3.610;2022-07-29T16:11:44;38.20;58.20
30097;DHT22;16915;51.466;3.610;2022-07-29T16:14:25;38.10;58.10
30097;DHT22;16915;51.466;3.610;2022-07-29T16:17:02;37.70;58.10
30097;DHT22;16915;51.466;3.610;2022-07-29T16:33:50;36.90;58.70
30097;DHT22;16915;51.466;3.610;2022-07-29T16:37:16;36.50;59.10
30097;DHT22;16915;51.466;3.610;2022-07-29T16:56:02;31.70;65.50
30097;DHT22;16915;51.466;3.610;2022-07-29T16:58:39;29.60;68.50
30097;DHT22;16915;51.466;3.610;2022-07-29T17:01:13;28.40;71.60
30097;DHT22;16915;51.466;3.610;2022-07-29T17:21:26;24.70;87.20
30097;DHT22;16915;51.466;3.610;2022-07-29T17:24:14;24.40;88.70
30097;DHT22;16915;51.466;3.610;2022-07-29T17:26:51;24.10;89.10
30097;DHT22;16915;51.466;3.610;2022-07-29T17:32:05;23.80;90.10
30097;DHT22;16915;51.466;3.610;2022-07-29T17:35:00;23.80;90.80
30097;DHT22;16915;51.466;3.610;2022-07-29T17:37:52;23.70;90.90
30097;DHT22;16915;51.466;3.610;2022-07-29T17:40:21;23.70;91.10
30097;DHT22;16915;51.466;3.610;2022-07-29T17:53:00;23.30;93.30
30097;DHT22;16915;51.466;3.610;2022-07-29T17:55:35;23.20;93.20
30097;DHT22;16915;51.466;3.610;2022-07-29T17:58:17;23.10;93.40
30097;DHT22;16915;51.466;3.610;2022-07-29T18:00:58;23.10;94.00
30097;DHT22;16915;51.466;3.610;2022-07-29T18:03:25;23.00;94.10
30097;DHT22;16915;51.466;3.610;2022-07-29T18:05:53;22.90;94.40
30097;DHT22;16915;51.466;3.610;2022-07-29T18:08:19;22.90;94.60
30097;DHT22;16915;51.466;3.610;2022-07-29T18:10:45;22.80;94.90
30097;DHT22;16915;51.466;3.610;2022-07-29T18:13:11;22.70;95.20
30097;DHT22;16915;51.466;3.610;2022-07-29T18:15:38;22.60;94.90
30097;DHT22;16915;51.466;3.610;2022-07-29T18:18:05;22.40;95.30
30097;DHT22;16915;51.466;3.610;2022-07-29T18:20:31;22.30;95.90
30097;DHT22;16915;51.466;3.610;2022-07-29T18:23:03;22.20;96.50
30097;DHT22;16915;51.466;3.610;2022-07-29T18:25:34;22.10;97.00
30097;DHT22;16915;51.466;3.610;2022-07-29T18:28:00;22.10;96.80
30097;DHT22;16915;51.466;3.610;2022-07-29T18:30:29;22.00;96.80
30097;DHT22;16915;51.466;3.610;2022-07-29T18:32:58;21.90;97.20
30097;DHT22;16915;51.466;3.610;2022-07-29T18:45:48;21.90;98.40
30097;DHT22;16915;51.466;3.610;2022-07-29T18:48:34;21.70;98.50
30097;DHT22;16915;51.466;3.610;2022-07-29T18:51:00;21.60;99.30
30097;DHT22;16915;51.466;3.610;2022-07-29T18:53:39;21.50;99.80
30097;DHT22;16915;51.466;3.610;2022-07-29T18:56:11;21.40;99.90
30097;DHT22;16915;51.466;3.610;2022-07-29T19:06:05;21.10;99.90
30097;DHT22;16915;51.466;3.610;2022-07-29T19:08:30;21.00;99.90
30097;DHT22;16915;51.466;3.610;2022-07-29T19:10:58;21.00;99.90
30097;DHT22;16915;51.466;3.610;2022-07-29T19:13:32;20.80;99.90
30097;DHT22;16915;51.466;3.610;2022-07-29T19:16:19;20.80;99.90
30097;DHT22;16915;51.466;3.610;2022-07-29T19:19:02;20.70;99.90
30097;DHT22;16915;51.466;3.610;2022-07-29T19:27:40;20.60;99.90
30097;DHT22;16915;51.466;3.610;2022-07-29T19:30:22;20.50;99.90
30097;DHT22;16915;51.466;3.610;2022-07-29T19:32:50;20.40;99.90
30097;DHT22;16915;51.466;3.610;2022-07-29T19:35:31;20.40;99.90
30097;DHT22;16915;51.466;3.610;2022-07-29T22:03:15;17.70;99.90
30097;DHT22;16915;51.466;3.610;2022-07-29T23:10:50;17.00;99.90
30097;DHT22;16915;51.466;3.610;2022-07-29T23:14:23;16.90;99.90
30097;DHT22;16915;51.466;3.610;2022-07-29T23:17:58;16.90;99.90
30097;DHT22;16915;51.466;3.610;2022-07-29T23:56:48;16.30;99.90
